createdAt,value
2019-04-23T00:01:54.407Z,2.80
2019-04-23T00:04:18.105Z,2.60
2019-04-23T00:06:59.359Z,3.20
2019-04-23T00:09:21.188Z,2.80
2019-04-23T00:11:48.148Z,2.90
2019-04-23T00:14:23.996Z,2.67
2019-04-23T00:16:47.314Z,3.63
2019-04-23T00:19:12.919Z,3.40
2019-04-23T00:21:50.328Z,3.73
2019-04-23T00:24:46.118Z,3.00
2019-04-23T00:27:13.168Z,3.10
2019-04-23T00:29:36.803Z,2.90
2019-04-23T00:32:00.811Z,3.03
2019-04-23T00:34:38.296Z,4.00
2019-04-23T00:37:07.936Z,3.23
2019-04-23T00:39:26.454Z,3.37
2019-04-23T00:41:57.458Z,2.90
2019-04-23T00:44:37.780Z,3.53
2019-04-23T00:46:58.848Z,3.50
2019-04-23T00:49:27.580Z,3.03
2019-04-23T00:51:52.940Z,3.80
2019-04-23T00:57:07.405Z,3.77
2019-04-23T00:59:21.262Z,3.90
2019-04-23T01:01:56.635Z,3.87
2019-04-23T01:04:17.184Z,3.40
2019-04-23T01:06:46.170Z,3.23
2019-04-23T01:09:15.585Z,3.53
2019-04-23T01:11:43.512Z,3.80
2019-04-23T01:14:13.229Z,3.63
2019-04-23T01:16:38.034Z,3.80
2019-04-23T01:19:07.054Z,4.30
2019-04-23T01:21:28.531Z,3.90
2019-04-23T01:24:19.569Z,4.07
2019-04-23T01:28:23.109Z,4.03
2019-04-23T01:29:58.492Z,4.50
2019-04-23T01:32:25.622Z,4.07
2019-04-23T01:34:56.330Z,3.87
2019-04-23T01:37:25.658Z,3.77
2019-04-23T01:39:52.823Z,4.23
2019-04-23T01:42:28.969Z,4.00
2019-04-23T01:44:50.427Z,3.53
2019-04-23T01:47:17.288Z,4.70
2019-04-23T01:49:57.202Z,4.40
2019-04-23T01:52:19.756Z,4.07
2019-04-23T01:54:48.307Z,4.30
2019-04-23T01:57:16.679Z,3.97
2019-04-23T01:59:49.068Z,4.00
2019-04-23T02:02:12.216Z,3.50
2019-04-23T02:04:47.693Z,4.27
2019-04-23T02:07:12.797Z,4.17
2019-04-23T02:09:41.949Z,3.80
2019-04-23T02:12:11.437Z,3.83
2019-04-23T02:14:34.879Z,4.00
2019-04-23T02:17:10.244Z,4.10
2019-04-23T02:19:42.811Z,4.03
2019-04-23T02:22:25.027Z,4.60
2019-04-23T02:24:59.690Z,4.30
2019-04-23T02:27:22.379Z,4.30
2019-04-23T02:30:12.634Z,4.03
2019-04-23T02:32:34.012Z,4.53
2019-04-23T02:34:57.933Z,4.80
2019-04-23T02:37:40.868Z,4.70
2019-04-23T02:42:44.961Z,4.00
2019-04-23T02:44:45.517Z,4.53
2019-04-23T02:47:25.409Z,4.20
2019-04-23T02:52:16.048Z,4.57
2019-04-23T02:57:29.095Z,4.60
2019-04-23T03:04:56.960Z,4.50
2019-04-23T03:07:32.961Z,5.10
2019-04-23T03:09:44.926Z,5.33
2019-04-23T03:14:41.665Z,4.90
2019-04-23T03:17:10.622Z,4.90
2019-04-23T03:19:45.564Z,5.17
2019-04-23T03:27:41.957Z,5.37
2019-04-23T03:30:09.087Z,5.23
2019-04-23T03:33:55.486Z,5.40
2019-04-23T03:35:36.146Z,5.47
2019-04-23T03:40:03.062Z,4.80
2019-04-23T03:50:11.528Z,5.50
2019-04-23T03:52:27.948Z,5.40
2019-04-23T03:57:24.619Z,5.40
2019-04-23T03:59:58.893Z,5.47
2019-04-23T04:07:28.362Z,6.13
2019-04-23T04:09:47.607Z,5.20
2019-04-23T04:12:21.728Z,5.50
2019-04-23T04:17:16.012Z,5.80
2019-04-23T04:24:39.917Z,5.57
2019-04-23T04:39:49.761Z,6.23
2019-04-23T04:47:09.958Z,6.30
2019-04-23T04:49:49.366Z,7.10
2019-04-23T04:54:30.835Z,7.03
2019-04-23T04:57:01.295Z,7.00
2019-04-23T04:59:35.502Z,6.40
2019-04-23T05:02:08.952Z,6.60
2019-04-23T05:04:42.321Z,6.40
2019-04-23T05:09:31.930Z,5.73
2019-04-23T05:14:25.213Z,7.00
2019-04-23T05:16:52.665Z,6.60
2019-04-23T05:19:31.599Z,6.07
2019-04-23T05:21:54.447Z,5.90
2019-04-23T05:26:37.581Z,6.10
2019-04-23T05:29:14.515Z,6.60
2019-04-23T05:31:40.334Z,6.60
2019-04-23T05:34:20.791Z,5.57
2019-04-23T05:36:49.826Z,6.40
2019-04-23T05:39:18.517Z,7.10
2019-04-23T05:44:13.805Z,5.80
2019-04-23T05:49:09.241Z,6.33
2019-04-23T05:54:06.526Z,6.87
2019-04-23T05:56:32.427Z,7.00
2019-04-23T05:59:08.757Z,5.90
2019-04-23T06:01:53.075Z,6.53
2019-04-23T06:06:37.775Z,6.63
2019-04-23T06:08:59.831Z,6.93
2019-04-23T06:11:36.926Z,6.53
2019-04-23T06:16:30.951Z,6.13
2019-04-23T06:19:05.912Z,5.77
2019-04-23T06:21:25.260Z,5.80
2019-04-23T06:24:03.039Z,6.70
2019-04-23T06:26:36.014Z,6.10
2019-04-23T06:28:59.034Z,6.50
2019-04-23T06:31:24.475Z,6.40
2019-04-23T06:33:47.961Z,6.07
2019-04-23T06:36:23.982Z,6.10
2019-04-23T06:38:54.542Z,5.83
2019-04-23T06:43:58.921Z,6.00
2019-04-23T06:46:20.032Z,5.90
2019-04-23T06:48:47.581Z,5.50
2019-04-23T06:51:37.824Z,5.80
2019-04-23T06:53:43.852Z,5.87
2019-04-23T06:56:21.120Z,6.07
2019-04-23T06:58:45.683Z,6.10
2019-04-23T07:01:11.669Z,5.67
2019-04-23T07:09:05.384Z,6.03
2019-04-23T07:16:21.432Z,5.97
2019-04-23T07:18:36.153Z,5.07
2019-04-23T07:21:13.474Z,6.30
2019-04-23T07:26:24.312Z,5.93
2019-04-23T07:28:39.032Z,5.83
2019-04-23T07:31:07.473Z,6.37
2019-04-23T07:33:41.732Z,6.33
2019-04-23T07:36:01.878Z,6.27
2019-04-23T07:38:48.892Z,6.43
2019-04-23T07:41:25.506Z,5.23
2019-04-23T07:44:08.396Z,6.37
2019-04-23T07:46:40.793Z,6.23
2019-04-23T07:49:02.634Z,6.23
2019-04-23T07:51:44.826Z,5.83
2019-04-23T07:56:29.783Z,6.00
2019-04-23T07:59:03.908Z,5.97
2019-04-23T08:01:32.228Z,5.23
2019-04-23T08:03:54.245Z,6.87
2019-04-23T08:06:21.704Z,6.07
2019-04-23T08:08:56.322Z,5.50
2019-04-23T08:11:33.144Z,6.80
2019-04-23T08:21:19.240Z,6.30
2019-04-23T08:24:10.641Z,6.00
2019-04-23T08:26:45.098Z,6.87
2019-04-23T08:29:19.890Z,6.47
2019-04-23T08:32:12.442Z,6.17
2019-04-23T08:34:32.516Z,5.43
2019-04-23T08:37:00.977Z,6.37
2019-04-23T08:39:30.932Z,5.70
2019-04-23T08:42:12.568Z,6.23
2019-04-23T08:44:27.702Z,6.03
2019-04-23T08:47:02.702Z,6.20
2019-04-23T08:49:31.461Z,6.90
2019-04-23T08:52:00.271Z,6.33
2019-04-23T08:54:40.538Z,6.43
2019-04-23T08:56:55.095Z,6.53
2019-04-23T08:59:36.842Z,5.77
2019-04-23T09:02:10.561Z,6.60
2019-04-23T09:04:23.911Z,5.63
2019-04-23T09:06:53.362Z,6.43
2019-04-23T09:09:20.232Z,8.07
2019-04-23T09:11:59.237Z,6.07
2019-04-23T09:14:04.614Z,6.17
2019-04-23T09:16:52.855Z,5.90
2019-04-23T09:19:16.530Z,6.77
2019-04-23T09:21:41.898Z,7.10
2019-04-23T09:24:11.386Z,6.27
2019-04-23T09:26:41.476Z,6.37
2019-04-23T09:29:14.785Z,6.87
2019-04-23T09:32:07.670Z,7.50
2019-04-23T09:34:16.623Z,7.00
2019-04-23T09:36:59.768Z,6.27
2019-04-23T09:42:02.297Z,6.30
2019-04-23T09:44:56.621Z,6.80
2019-04-23T09:47:15.955Z,7.43
2019-04-23T09:49:44.691Z,7.07
2019-04-23T09:54:43.703Z,6.23
2019-04-23T09:57:04.610Z,6.57
2019-04-23T09:59:41.471Z,6.10
2019-04-23T10:01:57.425Z,6.97
2019-04-23T10:04:20.864Z,6.80
2019-04-23T10:06:38.700Z,7.20
2019-04-23T10:09:09.352Z,6.77
2019-04-23T10:11:34.721Z,6.60
2019-04-23T10:14:02.893Z,7.47
2019-04-23T10:16:34.096Z,6.87
2019-04-23T10:19:00.977Z,6.23
2019-04-23T10:21:29.251Z,6.37
2019-04-23T10:23:57.124Z,6.47
2019-04-23T10:26:25.919Z,6.60
2019-04-23T10:29:05.416Z,6.50
2019-04-23T10:31:33.475Z,6.93
2019-04-23T10:34:02.097Z,5.90
2019-04-23T10:36:30.500Z,6.73
2019-04-23T10:39:04.924Z,7.47
2019-04-23T10:41:28.047Z,7.37
2019-04-23T10:44:04.813Z,6.60
2019-04-23T10:47:15.210Z,5.93
2019-04-23T10:49:58.074Z,6.20
2019-04-23T10:52:25.554Z,6.43
2019-04-23T10:57:22.688Z,6.77
2019-04-23T10:59:47.369Z,6.97
2019-04-23T11:09:59.321Z,6.07
2019-04-23T11:15:23.164Z,6.30
2019-04-23T11:17:45.593Z,6.90
2019-04-23T11:20:17.651Z,6.93
2019-04-23T11:22:45.152Z,7.00
2019-04-23T11:25:24.473Z,7.30
2019-04-23T11:27:44.008Z,7.70
2019-04-23T11:30:19.110Z,6.73
2019-04-23T11:32:47.013Z,6.80
2019-04-23T11:42:41.276Z,7.23
2019-04-23T11:45:06.983Z,6.90
2019-04-23T11:50:24.069Z,7.37
2019-04-23T11:52:35.758Z,6.80
2019-04-23T11:55:00.908Z,7.50
2019-04-23T11:59:52.859Z,7.17
2019-04-23T12:02:38.629Z,7.20
2019-04-23T12:05:21.632Z,6.77
2019-04-23T12:07:50.795Z,6.63
2019-04-23T12:10:51.884Z,7.03
2019-04-23T12:13:15.663Z,6.80
2019-04-23T12:18:28.329Z,7.57
2019-04-23T12:20:38.063Z,6.50
2019-04-23T12:23:19.015Z,6.40
2019-04-23T12:25:39.346Z,6.23
2019-04-23T12:27:59.276Z,6.63
2019-04-23T12:30:40.264Z,7.23
2019-04-23T12:33:03.223Z,6.07
2019-04-23T12:35:34.030Z,6.87
2019-04-23T12:38:07.356Z,6.40
2019-04-23T12:40:30.903Z,6.80
2019-04-23T12:48:09.590Z,6.93
2019-04-23T12:50:44.780Z,7.10
2019-04-23T12:53:01.062Z,7.07
2019-04-23T12:55:38.995Z,6.87
2019-04-23T12:58:03.962Z,6.10
2019-04-23T13:00:35.873Z,7.10
2019-04-23T13:08:00.470Z,5.93
2019-04-23T13:13:09.224Z,5.93
2019-04-23T13:20:39.942Z,6.67
2019-04-23T13:23:03.197Z,6.10
2019-04-23T13:25:51.050Z,6.63
2019-04-23T13:38:15.783Z,6.70
2019-04-23T13:40:37.536Z,6.47
2019-04-23T13:43:12.178Z,5.77
2019-04-23T13:50:43.266Z,6.43
2019-04-23T13:56:01.673Z,5.60
2019-04-23T14:00:44.763Z,6.50
2019-04-23T14:03:04.354Z,5.93
2019-04-23T14:05:41.133Z,6.13
2019-04-23T14:08:45.209Z,5.43
2019-04-23T14:13:28.489Z,6.30
2019-04-23T14:15:59.005Z,5.97
2019-04-23T14:20:42.245Z,6.40
2019-04-23T14:23:12.949Z,6.70
2019-04-23T14:25:57.281Z,5.83
2019-04-23T14:33:15.409Z,5.80
2019-04-23T14:38:23.437Z,6.10
2019-04-23T14:43:14.627Z,5.70
2019-04-23T14:46:27.202Z,6.30
2019-04-23T14:48:38.540Z,5.50
2019-04-23T14:50:53.489Z,6.90
2019-04-23T14:53:24.542Z,6.00
2019-04-23T14:58:36.939Z,6.40
2019-04-23T15:03:32.548Z,6.37
2019-04-23T15:06:12.462Z,6.90
2019-04-23T15:08:33.670Z,6.00
2019-04-23T15:11:08.227Z,5.83
2019-04-23T15:13:22.968Z,6.20
2019-04-23T15:16:03.083Z,5.77
2019-04-23T15:18:45.223Z,5.50
2019-04-23T15:23:58.110Z,6.07
2019-04-23T15:28:14.611Z,6.30
2019-04-23T15:31:10.109Z,5.77
2019-04-23T15:33:51.886Z,5.80
2019-04-23T15:36:23.893Z,6.10
2019-04-23T15:41:10.221Z,6.30
2019-04-23T15:43:32.691Z,5.90
2019-04-23T15:46:02.625Z,6.83
2019-04-23T15:48:32.235Z,5.67
2019-04-23T15:51:06.202Z,5.30
2019-04-23T15:53:24.924Z,5.27
2019-04-23T15:55:59.593Z,6.70
2019-04-23T15:58:33.498Z,5.80
2019-04-23T16:01:22.243Z,5.70
2019-04-23T16:03:17.533Z,5.60
2019-04-23T16:05:44.702Z,5.83
2019-04-23T16:08:48.080Z,5.87
2019-04-23T16:11:17.126Z,5.60
2019-04-23T16:13:50.405Z,5.60
2019-04-23T16:16:14.621Z,5.50
2019-04-23T16:18:41.937Z,5.30
2019-04-23T16:21:20.363Z,5.60
2019-04-23T16:23:37.839Z,6.43
2019-04-23T16:26:07.078Z,6.27
2019-04-23T16:29:00.343Z,7.03
2019-04-23T16:31:15.078Z,5.83
2019-04-23T16:33:39.538Z,6.17
2019-04-23T16:36:11.246Z,5.57
2019-04-23T16:41:09.231Z,6.30
2019-04-23T16:43:54.331Z,5.40
2019-04-23T16:51:25.234Z,5.70
2019-04-23T16:53:29.900Z,5.90
2019-04-23T16:56:13.537Z,5.53
2019-04-23T16:58:54.404Z,6.30
2019-04-23T17:01:08.631Z,5.90
2019-04-23T17:03:31.889Z,5.50
2019-04-23T17:06:08.845Z,6.57
2019-04-23T17:16:18.269Z,6.37
2019-04-23T17:18:31.339Z,6.47
2019-04-23T17:20:58.251Z,6.17
2019-04-23T17:23:34.454Z,6.90
2019-04-23T17:25:55.662Z,5.70
2019-04-23T17:28:21.957Z,6.50
2019-04-23T17:31:14.640Z,6.43
2019-04-23T17:33:31.962Z,6.07
2019-04-23T17:36:05.429Z,6.47
2019-04-23T17:41:05.797Z,6.87
2019-04-23T17:43:31.538Z,8.07
2019-04-23T17:45:56.656Z,6.50
2019-04-23T17:48:27.210Z,5.87
2019-04-23T17:53:35.245Z,6.57
2019-04-23T18:01:17.077Z,6.10
2019-04-23T18:03:30.371Z,6.63
2019-04-23T18:06:18.711Z,6.07
2019-04-23T18:08:27.251Z,6.17
2019-04-23T18:11:07.598Z,5.90
2019-04-23T18:13:28.373Z,5.70
2019-04-23T18:16:01.683Z,5.60
2019-04-23T18:18:31.094Z,6.10
2019-04-23T18:21:19.992Z,6.73
2019-04-23T18:24:10.408Z,6.73
2019-04-23T18:26:31.198Z,6.30
2019-04-23T18:29:06.988Z,6.70
2019-04-23T18:31:25.249Z,6.43
2019-04-23T18:36:21.217Z,6.63
2019-04-23T18:41:23.630Z,6.17
2019-04-23T18:43:51.078Z,6.33
2019-04-23T18:46:22.904Z,6.20
2019-04-23T18:48:59.635Z,7.00
2019-04-23T18:51:12.463Z,6.40
2019-04-23T18:56:20.829Z,7.10
2019-04-23T19:03:57.691Z,7.00
2019-04-23T19:11:51.841Z,7.10
2019-04-23T19:14:14.074Z,7.43
2019-04-23T19:19:11.614Z,6.40
2019-04-23T19:21:59.401Z,6.53
2019-04-23T19:24:09.191Z,6.33
2019-04-23T19:31:46.093Z,7.03
2019-04-23T19:39:21.085Z,6.40
2019-04-23T19:41:54.308Z,6.90
2019-04-23T19:44:08.959Z,6.57
2019-04-23T19:46:50.569Z,7.07
2019-04-23T19:51:41.490Z,6.47
2019-04-23T19:56:37.752Z,6.43
2019-04-23T20:01:29.565Z,6.47
2019-04-23T20:03:56.249Z,7.13
2019-04-23T20:06:50.785Z,6.10
2019-04-23T20:09:16.300Z,6.17
2019-04-23T20:11:38.072Z,6.50
2019-04-23T20:16:39.987Z,8.23
2019-04-23T20:18:54.330Z,6.07
2019-04-23T20:21:28.330Z,7.00
2019-04-23T20:24:04.362Z,6.87
2019-04-23T20:29:14.772Z,7.60
2019-04-23T20:32:55.309Z,7.70
2019-04-23T20:39:09.252Z,6.80
2019-04-23T20:41:43.139Z,6.60
2019-04-23T20:46:43.107Z,7.40
2019-04-23T20:49:31.690Z,7.00
2019-04-23T20:51:41.298Z,7.50
2019-04-23T20:54:08.815Z,7.33
2019-04-23T20:56:36.818Z,7.13
2019-04-23T20:59:03.429Z,7.03
2019-04-23T21:01:48.167Z,7.10
2019-04-23T21:04:11.705Z,7.23
2019-04-23T21:06:46.638Z,7.80
2019-04-23T21:09:33.163Z,7.27
2019-04-23T21:11:46.261Z,6.83
2019-04-23T21:16:35.817Z,7.70
2019-04-23T21:19:02.468Z,7.43
2019-04-23T21:21:33.802Z,8.33
2019-04-23T21:24:01.322Z,7.60
2019-04-23T21:26:30.909Z,8.20
2019-04-23T21:31:28.363Z,7.73
2019-04-23T21:39:47.734Z,7.97
2019-04-23T21:44:18.326Z,7.03
2019-04-23T21:49:28.751Z,6.60
2019-04-23T21:54:15.337Z,7.40
2019-04-23T21:56:48.341Z,7.70
2019-04-23T22:01:48.694Z,7.30
2019-04-23T22:04:35.645Z,7.70
2019-04-23T22:09:21.478Z,7.60
2019-04-23T22:11:57.972Z,7.23
2019-04-23T22:14:17.234Z,8.03
2019-04-23T22:19:27.804Z,7.60
2019-04-23T22:21:47.195Z,8.47
2019-04-23T22:24:05.654Z,7.07
2019-04-23T22:29:14.061Z,7.00
2019-04-23T22:34:08.737Z,8.40
2019-04-23T22:36:54.870Z,7.33
2019-04-23T22:39:04.578Z,7.20
2019-04-23T22:41:38.002Z,8.20
2019-04-23T22:46:48.157Z,7.00
2019-04-23T22:49:18.257Z,7.57
2019-04-23T22:51:43.616Z,7.20
2019-04-23T22:54:05.539Z,6.53
2019-04-23T22:56:35.464Z,7.40
2019-04-23T22:59:11.732Z,7.23
2019-04-23T23:01:42.168Z,7.20
2019-04-23T23:04:23.690Z,5.80
2019-04-23T23:11:43.945Z,6.33
2019-04-23T23:16:39.245Z,6.10
2019-04-23T23:19:14.183Z,6.23
2019-04-23T23:21:43.184Z,7.40
2019-04-23T23:24:09.648Z,6.00
2019-04-23T23:26:54.161Z,6.63
2019-04-23T23:29:02.190Z,7.00
2019-04-23T23:31:39.859Z,6.73
2019-04-23T23:34:00.366Z,7.50
2019-04-23T23:39:07.900Z,6.60
2019-04-23T23:44:20.806Z,6.40
2019-04-23T23:46:35.592Z,7.00
2019-04-23T23:48:56.330Z,6.90
2019-04-23T23:51:29.132Z,6.57
2019-04-23T23:54:10.383Z,6.87
2019-04-23T23:58:56.899Z,6.90
